createdAt,value
2023-02-22T00:01:33.324Z,26.08
2023-02-22T00:03:59.955Z,24.25
2023-02-22T00:06:26.443Z,27.63
2023-02-22T00:08:53.363Z,25.10
2023-02-22T00:11:20.666Z,22.50
2023-02-22T00:13:47.677Z,29.73
2023-02-22T00:16:16.495Z,27.05
2023-02-22T00:18:44.450Z,26.27
2023-02-22T00:21:13.386Z,28.30
2023-02-22T00:23:46.653Z,26.52
2023-02-22T00:26:23.425Z,25.27
2023-02-22T00:28:52.570Z,22.58
2023-02-22T00:31:20.268Z,26.05
2023-02-22T00:33:46.986Z,24.10
2023-02-22T00:36:14.492Z,23.25
2023-02-22T00:38:42.244Z,23.17
2023-02-22T00:41:09.645Z,23.65
2023-02-22T00:43:36.526Z,25.05
2023-02-22T00:46:03.830Z,23.65
2023-02-22T00:48:30.417Z,25.60
2023-02-22T00:50:57.089Z,29.02
2023-02-22T00:53:25.358Z,26.52
2023-02-22T00:55:52.588Z,21.60
2023-02-22T00:58:19.777Z,25.50
2023-02-22T01:00:46.837Z,23.38
2023-02-22T01:03:16.965Z,24.00
2023-02-22T01:05:44.224Z,21.80
2023-02-22T01:08:13.391Z,25.05
2023-02-22T01:10:40.583Z,24.63
2023-02-22T01:13:12.396Z,22.58
2023-02-22T01:15:42.168Z,24.88
2023-02-22T01:18:09.243Z,25.17
2023-02-22T01:20:36.623Z,24.45
2023-02-22T01:23:06.651Z,24.95
2023-02-22T01:25:34.585Z,24.55
2023-02-22T01:28:02.389Z,26.40
2023-02-22T01:30:32.972Z,26.50
2023-02-22T01:33:01.282Z,23.50
2023-02-22T01:35:30.362Z,24.20
2023-02-22T01:37:58.102Z,23.63
2023-02-22T01:40:37.406Z,25.85
2023-02-22T01:43:24.615Z,26.20
2023-02-22T01:45:55.730Z,23.98
2023-02-22T01:48:31.757Z,25.67
2023-02-22T01:51:03.681Z,23.83
2023-02-22T01:53:36.030Z,23.55
2023-02-22T01:56:04.135Z,23.23
2023-02-22T01:58:33.797Z,24.65
2023-02-22T02:01:01.253Z,24.88
2023-02-22T02:03:33.832Z,24.05
2023-02-22T02:06:05.317Z,23.15
2023-02-22T02:08:36.209Z,24.15
2023-02-22T02:11:09.029Z,26.80
2023-02-22T02:13:36.654Z,26.33
2023-02-22T02:16:03.704Z,26.15
2023-02-22T02:18:32.641Z,23.48
2023-02-22T02:21:27.038Z,24.40
2023-02-22T02:24:18.504Z,23.25
2023-02-22T02:27:06.230Z,23.50
2023-02-22T02:29:35.880Z,27.67
2023-02-22T02:32:52.261Z,25.30
2023-02-22T02:35:48.008Z,24.85
2023-02-22T02:38:26.737Z,26.35
2023-02-22T02:41:12.151Z,24.55
2023-02-22T02:43:58.593Z,23.77
2023-02-22T02:46:38.883Z,24.38
2023-02-22T02:49:16.711Z,26.38
2023-02-22T02:51:49.039Z,25.50
2023-02-22T02:54:16.394Z,29.38
2023-02-22T02:56:43.033Z,26.08
2023-02-22T02:59:31.754Z,25.85
2023-02-22T03:02:27.160Z,26.08
2023-02-22T03:05:21.615Z,28.55
2023-02-22T03:08:07.797Z,27.30
2023-02-22T03:11:14.936Z,29.58
2023-02-22T03:14:23.989Z,28.17
2023-02-22T03:17:12.213Z,29.00
2023-02-22T03:19:47.703Z,28.95
2023-02-22T03:22:27.863Z,30.67
2023-02-22T03:25:10.695Z,28.00
2023-02-22T03:27:50.498Z,30.02
2023-02-22T03:30:27.793Z,30.88
2023-02-22T03:33:03.288Z,32.72
2023-02-22T03:35:35.472Z,31.55
2023-02-22T03:38:06.612Z,33.92
2023-02-22T03:40:47.228Z,32.63
2023-02-22T03:43:18.828Z,27.88
2023-02-22T03:45:48.942Z,31.38
2023-02-22T03:48:30.625Z,33.65
2023-02-22T03:50:58.527Z,31.70
2023-02-22T03:53:25.413Z,35.67
2023-02-22T03:55:55.693Z,33.30
2023-02-22T03:58:25.034Z,30.70
2023-02-22T04:00:54.273Z,32.92
2023-02-22T04:03:22.310Z,33.45
2023-02-22T04:05:49.694Z,33.35
2023-02-22T04:08:16.870Z,31.70
2023-02-22T04:10:43.428Z,31.83
2023-02-22T04:13:10.744Z,32.75
2023-02-22T04:15:37.661Z,34.55
2023-02-22T04:18:04.556Z,35.55
2023-02-22T04:20:31.747Z,33.10
2023-02-22T04:22:58.370Z,34.05
2023-02-22T04:25:25.193Z,36.05
2023-02-22T04:27:52.528Z,37.10
2023-02-22T04:30:19.761Z,33.78
2023-02-22T04:32:46.567Z,33.28
2023-02-22T04:35:13.185Z,31.85
2023-02-22T04:37:39.977Z,36.10
2023-02-22T04:40:08.114Z,38.92
2023-02-22T04:42:36.193Z,32.28
2023-02-22T04:45:04.631Z,34.20
2023-02-22T04:47:31.106Z,36.00
2023-02-22T04:49:57.851Z,35.85
2023-02-22T04:52:24.708Z,35.13
2023-02-22T04:54:51.232Z,36.70
2023-02-22T04:57:17.773Z,33.40
2023-02-22T04:59:44.502Z,35.65
2023-02-22T05:02:11.342Z,35.35
2023-02-22T05:04:39.014Z,36.80
2023-02-22T05:07:05.960Z,34.97
2023-02-22T05:09:32.446Z,33.08
2023-02-22T05:11:58.992Z,32.17
2023-02-22T05:14:28.232Z,38.85
2023-02-22T05:16:57.022Z,37.00
2023-02-22T05:19:24.687Z,33.03
2023-02-22T05:21:51.456Z,42.15
2023-02-22T05:24:18.027Z,40.45
2023-02-22T05:26:46.078Z,39.40
2023-02-22T05:29:12.729Z,40.25
2023-02-22T05:31:39.334Z,42.67
2023-02-22T05:34:05.980Z,44.28
2023-02-22T05:36:32.676Z,39.78
2023-02-22T05:38:59.198Z,43.63
2023-02-22T05:41:25.651Z,47.55
2023-02-22T05:43:52.213Z,40.78
2023-02-22T05:46:18.799Z,43.63
2023-02-22T05:48:45.305Z,46.45
2023-02-22T05:51:12.138Z,42.50
2023-02-22T05:53:38.719Z,46.72
2023-02-22T05:56:05.825Z,44.35
2023-02-22T05:58:32.369Z,46.95
2023-02-22T06:01:00.155Z,41.50
2023-02-22T06:03:27.842Z,48.75
2023-02-22T06:05:54.428Z,46.88
2023-02-22T06:08:20.988Z,45.95
2023-02-22T06:10:47.509Z,50.05
2023-02-22T06:13:14.051Z,40.42
2023-02-22T06:15:40.657Z,43.95
2023-02-22T06:18:07.223Z,47.63
2023-02-22T06:20:35.552Z,44.30
2023-02-22T06:23:02.121Z,51.78
2023-02-22T06:25:32.812Z,46.55
2023-02-22T06:28:00.600Z,46.80
2023-02-22T06:30:28.373Z,45.45
2023-02-22T06:32:55.084Z,46.38
2023-02-22T06:35:22.554Z,44.22
2023-02-22T06:37:49.080Z,49.42
2023-02-22T06:40:16.149Z,44.35
2023-02-22T06:42:43.218Z,47.80
2023-02-22T06:45:10.698Z,47.90
2023-02-22T06:47:41.431Z,49.17
2023-02-22T06:50:18.564Z,52.95
2023-02-22T06:52:45.196Z,51.00
2023-02-22T06:55:11.770Z,50.72
2023-02-22T06:57:38.394Z,51.35
2023-02-22T07:00:05.370Z,49.47
2023-02-22T07:02:31.967Z,52.05
2023-02-22T07:04:58.540Z,52.47
2023-02-22T07:07:25.409Z,45.80
2023-02-22T07:09:51.934Z,54.17
2023-02-22T07:12:18.686Z,52.05
2023-02-22T07:14:45.480Z,55.25
2023-02-22T07:17:12.844Z,47.25
2023-02-22T07:19:39.446Z,44.80
2023-02-22T07:22:06.316Z,46.47
2023-02-22T07:24:35.262Z,43.28
2023-02-22T07:27:02.857Z,46.33
2023-02-22T07:29:30.439Z,48.20
2023-02-22T07:31:58.011Z,48.10
2023-02-22T07:34:24.726Z,48.03
2023-02-22T07:36:51.332Z,53.50
2023-02-22T07:39:17.923Z,42.22
2023-02-22T07:41:44.508Z,48.33
2023-02-22T07:44:11.107Z,47.70
2023-02-22T07:46:37.841Z,47.05
2023-02-22T07:49:04.384Z,40.58
2023-02-22T07:51:30.943Z,40.88
2023-02-22T07:53:57.653Z,41.63
2023-02-22T07:56:24.258Z,42.08
2023-02-22T07:58:50.811Z,39.95
2023-02-22T08:01:17.651Z,37.63
2023-02-22T08:03:47.516Z,40.15
2023-02-22T08:06:14.222Z,39.53
2023-02-22T08:08:40.841Z,40.28
2023-02-22T08:11:07.338Z,40.72
2023-02-22T08:13:33.988Z,42.45
2023-02-22T08:16:00.504Z,41.88
2023-02-22T08:18:27.096Z,40.63
2023-02-22T08:20:54.261Z,38.22
2023-02-22T08:23:23.520Z,38.40
2023-02-22T08:25:50.117Z,43.00
2023-02-22T08:28:23.579Z,39.58
2023-02-22T08:30:50.816Z,38.67
2023-02-22T08:33:19.780Z,39.92
2023-02-22T08:35:49.712Z,37.17
2023-02-22T08:38:34.818Z,37.53
2023-02-22T08:41:01.386Z,38.28
2023-02-22T08:43:28.646Z,38.45
2023-02-22T08:45:57.405Z,37.95
2023-02-22T08:48:24.347Z,38.58
2023-02-22T08:50:51.056Z,37.17
2023-02-22T08:53:18.452Z,37.88
2023-02-22T08:55:45.552Z,35.97
2023-02-22T08:58:12.502Z,37.72
2023-02-22T09:00:40.639Z,35.08
2023-02-22T09:03:10.534Z,40.55
2023-02-22T09:05:37.501Z,36.35
2023-02-22T09:08:04.458Z,32.65
2023-02-22T09:10:33.528Z,36.60
2023-02-22T09:13:01.282Z,39.45
2023-02-22T09:15:28.996Z,36.83
2023-02-22T09:17:56.262Z,37.92
2023-02-22T09:20:27.178Z,36.47
2023-02-22T09:22:55.221Z,37.88
2023-02-22T09:25:22.880Z,34.50
2023-02-22T09:27:53.951Z,32.75
2023-02-22T09:30:33.512Z,32.60
2023-02-22T09:33:10.328Z,33.30
2023-02-22T09:35:37.971Z,33.65
2023-02-22T09:38:06.579Z,34.85
2023-02-22T09:40:41.021Z,31.02
2023-02-22T09:46:12.155Z,28.77
2023-02-22T09:48:58.016Z,29.63
2023-02-22T09:51:35.809Z,33.65
2023-02-22T09:54:06.563Z,31.48
2023-02-22T09:56:34.018Z,28.95
2023-02-22T09:59:07.094Z,29.27
2023-02-22T10:01:39.284Z,30.88
2023-02-22T10:04:12.004Z,28.73
2023-02-22T10:06:44.213Z,28.42
2023-02-22T10:09:11.440Z,31.73
2023-02-22T10:11:55.709Z,35.17
2023-02-22T10:14:46.766Z,34.08
2023-02-22T10:17:34.410Z,29.85
2023-02-22T10:20:38.545Z,34.88
2023-02-22T10:23:18.210Z,32.15
2023-02-22T10:25:50.774Z,34.50
2023-02-22T10:28:37.983Z,34.28
2023-02-22T10:31:08.606Z,29.33
2023-02-22T10:33:47.772Z,31.98
2023-02-22T10:36:20.566Z,31.20
2023-02-22T10:39:00.389Z,31.70
2023-02-22T10:41:34.397Z,31.58
2023-02-22T10:44:02.913Z,33.92
2023-02-22T10:46:32.069Z,33.33
2023-02-22T10:49:04.866Z,28.90
2023-02-22T10:51:31.408Z,29.88
2023-02-22T10:54:13.096Z,29.80
2023-02-22T10:56:51.251Z,28.40
2023-02-22T10:59:47.474Z,31.38
2023-02-22T11:02:23.934Z,28.55
2023-02-22T11:04:53.051Z,31.60
2023-02-22T11:07:24.073Z,29.80
2023-02-22T11:09:54.163Z,29.58
2023-02-22T11:12:28.826Z,34.70
2023-02-22T11:14:56.106Z,29.02
2023-02-22T11:17:30.324Z,29.73
2023-02-22T11:19:58.151Z,30.42
2023-02-22T11:22:45.944Z,28.30
2023-02-22T11:25:20.093Z,32.03
2023-02-22T11:27:47.087Z,28.05
2023-02-22T11:30:29.281Z,28.67
2023-02-22T11:33:00.638Z,29.35
2023-02-22T11:35:32.703Z,27.05
2023-02-22T11:38:26.535Z,28.65
2023-02-22T11:41:08.112Z,30.25
2023-02-22T11:43:35.412Z,32.47
2023-02-22T11:46:07.463Z,27.67
2023-02-22T11:48:39.216Z,28.75
2023-02-22T11:51:15.068Z,36.25
2023-02-22T11:53:50.526Z,27.77
2023-02-22T11:56:36.851Z,28.90
2023-02-22T11:59:08.090Z,30.08
2023-02-22T12:01:47.795Z,28.70
2023-02-22T12:04:52.033Z,31.77
2023-02-22T12:07:48.572Z,35.55
2023-02-22T12:10:18.480Z,31.30
2023-02-22T12:13:01.847Z,31.75
2023-02-22T12:15:34.902Z,27.45
2023-02-22T12:18:38.627Z,32.38
2023-02-22T12:21:19.584Z,32.70
2023-02-22T12:23:54.624Z,29.45
2023-02-22T12:26:28.230Z,33.13
2023-02-22T12:29:25.180Z,32.67
2023-02-22T12:32:13.405Z,34.88
2023-02-22T12:34:56.077Z,32.38
2023-02-22T12:37:27.677Z,31.15
2023-02-22T12:40:10.348Z,26.25
2023-02-22T12:42:36.772Z,32.72
2023-02-22T12:45:11.688Z,29.75
2023-02-22T12:47:45.990Z,30.75
2023-02-22T12:50:28.559Z,32.30
2023-02-22T12:53:06.809Z,31.35
2023-02-22T12:55:36.991Z,33.22
2023-02-22T12:58:23.161Z,30.65
2023-02-22T13:01:14.147Z,32.72
2023-02-22T13:03:44.123Z,32.53
2023-02-22T13:06:19.614Z,33.40
2023-02-22T13:08:55.632Z,31.58
2023-02-22T13:11:32.414Z,33.05
2023-02-22T13:14:16.884Z,30.83
2023-02-22T13:16:43.335Z,30.48
2023-02-22T13:19:51.529Z,27.17
2023-02-22T13:22:29.644Z,33.47
2023-02-22T13:25:02.230Z,27.52
2023-02-22T13:27:43.641Z,29.05
2023-02-22T13:30:31.204Z,30.25
2023-02-22T13:33:22.233Z,31.60
2023-02-22T13:35:58.221Z,32.03
2023-02-22T13:38:46.566Z,31.67
2023-02-22T13:41:28.158Z,27.83
2023-02-22T13:43:54.571Z,31.33
2023-02-22T13:47:08.983Z,29.23
2023-02-22T13:49:47.433Z,28.55
2023-02-22T13:52:19.422Z,28.75
2023-02-22T13:54:48.651Z,33.75
2023-02-22T13:57:26.891Z,30.48
2023-02-22T14:00:15.313Z,27.45
2023-02-22T14:03:01.443Z,31.15
2023-02-22T14:05:42.960Z,29.73
2023-02-22T14:08:36.932Z,29.05
2023-02-22T14:11:26.353Z,29.83
2023-02-22T14:13:58.005Z,27.15
2023-02-22T14:16:29.455Z,26.67
2023-02-22T14:19:06.476Z,25.25
2023-02-22T14:21:37.222Z,22.95
2023-02-22T14:24:11.507Z,25.52
2023-02-22T14:26:39.946Z,27.10
2023-02-22T14:29:09.447Z,24.25
2023-02-22T14:31:43.361Z,25.75
2023-02-22T14:34:21.522Z,24.38
2023-02-22T14:36:58.644Z,27.48
2023-02-22T14:39:51.210Z,26.10
2023-02-22T14:45:14.608Z,26.20
2023-02-22T14:48:04.576Z,27.38
2023-02-22T14:50:41.583Z,25.27
2023-02-22T14:53:22.760Z,24.58
2023-02-22T14:55:58.427Z,25.35
2023-02-22T14:58:34.135Z,25.20
2023-02-22T15:01:20.160Z,26.85
2023-02-22T15:03:49.725Z,26.92
2023-02-22T15:06:24.136Z,23.52
2023-02-22T15:09:06.561Z,24.85
2023-02-22T15:11:33.359Z,24.33
2023-02-22T15:14:02.001Z,23.45
2023-02-22T15:16:33.578Z,29.63
2023-02-22T15:19:06.757Z,26.45
2023-02-22T15:21:34.860Z,24.20
2023-02-22T15:24:05.260Z,24.10
2023-02-22T15:26:44.252Z,21.48
2023-02-22T15:29:22.948Z,23.48
2023-02-22T15:31:50.650Z,24.75
2023-02-22T15:34:32.986Z,26.48
2023-02-22T15:37:25.357Z,24.23
2023-02-22T15:40:00.586Z,24.27
2023-02-22T15:42:30.516Z,25.13
2023-02-22T15:44:58.087Z,24.75
2023-02-22T15:47:29.622Z,25.58
2023-02-22T15:50:18.258Z,25.73
2023-02-22T15:53:04.609Z,25.50
2023-02-22T15:55:31.055Z,24.70
2023-02-22T15:58:01.809Z,25.67
2023-02-22T16:00:38.110Z,25.63
2023-02-22T16:03:17.829Z,25.00
2023-02-22T16:05:52.566Z,27.33
2023-02-22T16:08:25.688Z,25.63
2023-02-22T16:11:05.708Z,25.38
2023-02-22T16:13:35.938Z,27.60
2023-02-22T16:16:24.725Z,27.73
2023-02-22T16:18:52.777Z,26.27
2023-02-22T16:21:22.055Z,29.42
2023-02-22T16:23:50.074Z,27.20
2023-02-22T16:26:24.208Z,28.42
2023-02-22T16:28:52.581Z,27.48
2023-02-22T16:31:21.626Z,25.42
2023-02-22T16:33:48.921Z,25.80
2023-02-22T16:36:15.819Z,27.70
2023-02-22T16:38:44.983Z,29.35
2023-02-22T16:41:11.705Z,30.50
2023-02-22T16:43:38.391Z,29.15
2023-02-22T16:46:07.121Z,28.83
2023-02-22T16:48:34.005Z,30.20
2023-02-22T16:51:06.431Z,31.88
2023-02-22T16:53:33.758Z,28.75
2023-02-22T16:56:04.808Z,31.65
2023-02-22T16:58:38.549Z,30.35
2023-02-22T17:01:06.050Z,30.92
2023-02-22T17:03:32.681Z,31.00
2023-02-22T17:05:59.234Z,29.90
2023-02-22T17:08:25.981Z,32.40
2023-02-22T17:10:56.720Z,28.73
2023-02-22T17:13:27.155Z,30.73
2023-02-22T17:15:57.656Z,35.38
2023-02-22T17:18:28.679Z,31.77
2023-02-22T17:20:56.227Z,30.67
2023-02-22T17:23:23.586Z,34.78
2023-02-22T17:25:54.563Z,32.72
2023-02-22T17:28:23.623Z,31.52
2023-02-22T17:30:51.639Z,35.67
2023-02-22T17:33:21.757Z,40.30
2023-02-22T17:35:48.604Z,35.40
2023-02-22T17:38:19.081Z,39.83
2023-02-22T17:40:48.241Z,37.53
2023-02-22T17:43:15.773Z,37.72
2023-02-22T17:45:42.487Z,37.97
2023-02-22T17:48:09.784Z,36.13
2023-02-22T17:50:38.140Z,39.92
2023-02-22T17:55:31.494Z,43.35
2023-02-22T17:57:58.388Z,43.67
2023-02-22T18:00:34.382Z,49.80
2023-02-22T18:03:04.265Z,44.65
2023-02-22T18:05:33.095Z,48.50
2023-02-22T18:08:00.117Z,45.13
2023-02-22T18:10:26.672Z,52.60
2023-02-22T18:12:53.955Z,45.10
2023-02-22T18:15:28.270Z,47.05
2023-02-22T18:17:56.001Z,52.22
2023-02-22T18:20:31.144Z,53.83
2023-02-22T18:22:59.478Z,54.47
2023-02-22T18:25:27.196Z,52.30
2023-02-22T18:27:55.032Z,68.07
2023-02-22T18:30:21.795Z,59.42
2023-02-22T18:32:48.380Z,57.92
2023-02-22T18:35:15.000Z,51.17
2023-02-22T18:37:41.526Z,57.88
2023-02-22T18:40:11.082Z,55.95
2023-02-22T18:42:39.438Z,55.95
2023-02-22T18:45:10.352Z,55.15
2023-02-22T18:47:42.283Z,55.65
2023-02-22T18:50:10.948Z,59.33
2023-02-22T18:52:46.681Z,65.05
2023-02-22T18:55:18.347Z,62.15
2023-02-22T18:57:46.098Z,65.78
2023-02-22T19:00:15.949Z,62.72
2023-02-22T19:02:45.751Z,59.90
2023-02-22T19:05:13.504Z,68.38
2023-02-22T19:07:40.046Z,63.67
2023-02-22T19:10:07.109Z,61.90
2023-02-22T19:12:33.935Z,60.97
2023-02-22T19:15:01.085Z,61.65
2023-02-22T19:17:29.790Z,82.43
2023-02-22T19:19:56.560Z,66.40
2023-02-22T19:22:26.107Z,68.45
2023-02-22T19:24:56.043Z,69.38
2023-02-22T19:27:22.713Z,64.68
2023-02-22T19:29:49.971Z,65.25
2023-02-22T19:32:17.552Z,68.63
2023-02-22T19:34:44.575Z,69.88
2023-02-22T19:37:12.642Z,70.90
2023-02-22T19:39:39.348Z,71.88
2023-02-22T19:42:09.563Z,75.35
2023-02-22T19:44:36.446Z,76.30
2023-02-22T19:47:08.832Z,71.95
2023-02-22T19:49:37.157Z,73.28
2023-02-22T19:52:06.624Z,75.65
2023-02-22T19:54:33.773Z,73.80
2023-02-22T19:57:00.572Z,71.95
2023-02-22T19:59:27.291Z,77.32
2023-02-22T20:01:54.728Z,71.78
2023-02-22T20:04:21.782Z,80.10
2023-02-22T20:06:57.541Z,70.80
2023-02-22T20:09:30.212Z,69.10
2023-02-22T20:11:57.135Z,74.60
2023-02-22T20:14:28.380Z,71.18
2023-02-22T20:16:55.895Z,68.32
2023-02-22T20:19:23.002Z,68.20
2023-02-22T20:21:49.740Z,69.07
2023-02-22T20:24:18.396Z,73.45
2023-02-22T20:26:46.856Z,89.13
2023-02-22T20:31:42.491Z,65.88
2023-02-22T20:34:10.167Z,68.18
2023-02-22T20:36:39.702Z,66.57
2023-02-22T20:39:07.814Z,65.13
2023-02-22T20:41:35.886Z,65.63
2023-02-22T20:44:03.433Z,63.28
2023-02-22T20:46:36.160Z,70.65
2023-02-22T20:49:07.153Z,64.25
2023-02-22T20:51:35.067Z,79.68
2023-02-22T20:54:01.826Z,89.50
2023-02-22T20:56:30.509Z,69.38
2023-02-22T20:59:02.377Z,66.95
2023-02-22T21:01:30.386Z,65.45
2023-02-22T21:04:06.463Z,63.78
2023-02-22T21:06:35.392Z,67.78
2023-02-22T21:09:05.300Z,61.83
2023-02-22T21:11:32.066Z,59.72
2023-02-22T21:13:59.974Z,61.20
2023-02-22T21:16:33.341Z,60.38
2023-02-22T21:19:01.852Z,63.30
2023-02-22T21:23:57.912Z,64.95
2023-02-22T21:26:29.669Z,60.35
2023-02-22T21:29:00.515Z,60.28
2023-02-22T21:31:28.186Z,62.33
2023-02-22T21:33:57.100Z,65.43
2023-02-22T21:36:25.729Z,63.33
2023-02-22T21:38:58.289Z,65.15
2023-02-22T21:41:27.941Z,56.10
2023-02-22T21:43:56.611Z,57.25
2023-02-22T21:46:24.254Z,59.65
2023-02-22T21:48:50.976Z,60.47
2023-02-22T21:51:22.012Z,61.17
2023-02-22T21:53:52.153Z,61.50
2023-02-22T21:56:23.748Z,61.88
2023-02-22T21:59:01.040Z,56.70
2023-02-22T22:01:34.126Z,59.63
2023-02-22T22:04:01.841Z,57.40
2023-02-22T22:06:30.626Z,62.13
2023-02-22T22:08:59.939Z,61.13
2023-02-22T22:11:26.689Z,60.50
2023-02-22T22:13:57.633Z,61.92
2023-02-22T22:16:27.211Z,62.33
2023-02-22T22:18:54.922Z,62.80
2023-02-22T22:21:23.849Z,57.85
2023-02-22T22:23:54.448Z,58.90
2023-02-22T22:26:24.699Z,59.95
2023-02-22T22:28:57.671Z,54.88
2023-02-22T22:31:26.108Z,55.20
2023-02-22T22:33:54.676Z,54.33
2023-02-22T22:36:22.493Z,55.70
2023-02-22T22:38:49.553Z,54.63
2023-02-22T22:41:19.069Z,54.10
2023-02-22T22:43:46.845Z,54.08
2023-02-22T22:46:16.628Z,57.40
2023-02-22T22:48:46.906Z,51.45
2023-02-22T22:51:18.445Z,54.17
2023-02-22T22:53:46.982Z,56.13
2023-02-22T22:56:19.163Z,54.00
2023-02-22T22:58:51.712Z,58.83
2023-02-22T23:01:26.778Z,56.00
2023-02-22T23:03:58.251Z,53.22
2023-02-22T23:06:30.816Z,58.08
2023-02-22T23:09:00.545Z,53.80
2023-02-22T23:11:29.358Z,56.72
2023-02-22T23:13:56.562Z,53.63
2023-02-22T23:16:24.209Z,48.28
2023-02-22T23:18:51.521Z,55.75
2023-02-22T23:21:23.772Z,51.97
2023-02-22T23:23:55.210Z,53.88
2023-02-22T23:26:21.699Z,49.63
2023-02-22T23:28:48.730Z,56.25
2023-02-22T23:31:17.205Z,53.65
2023-02-22T23:33:48.261Z,47.50
2023-02-22T23:36:16.357Z,50.97
2023-02-22T23:38:44.129Z,50.95
2023-02-22T23:41:13.490Z,55.10
2023-02-22T23:43:40.552Z,49.70
2023-02-22T23:46:18.675Z,52.25
2023-02-22T23:48:54.714Z,48.95
2023-02-22T23:51:27.064Z,51.10
2023-02-22T23:53:55.835Z,45.70
2023-02-22T23:56:25.363Z,49.60
2023-02-22T23:58:57.171Z,48.90
